createdAt,value
2023-02-04T00:00:39.293Z,103138.44
2023-02-04T00:03:08.780Z,103144.75
2023-02-04T00:05:39.820Z,103146.53
2023-02-04T00:08:07.913Z,103149.22
2023-02-04T00:10:36.920Z,103151.91
2023-02-04T00:13:07.465Z,103161.81
2023-02-04T00:15:35.590Z,103160.88
2023-02-04T00:18:03.941Z,103160.00
2023-02-04T00:20:36.323Z,103163.59
2023-02-04T00:23:04.406Z,103164.50
2023-02-04T00:25:32.429Z,103163.59
2023-02-04T00:28:00.413Z,103169.94
2023-02-04T00:30:28.701Z,103170.81
2023-02-04T00:32:59.844Z,103174.44
2023-02-04T00:35:27.855Z,103179.78
2023-02-04T00:37:57.576Z,103172.66
2023-02-04T00:40:25.500Z,103182.47
2023-02-04T00:42:53.496Z,103186.06
2023-02-04T00:45:21.761Z,103182.50
2023-02-04T00:47:49.695Z,103189.63
2023-02-04T00:50:18.123Z,103188.81
2023-02-04T00:52:46.100Z,103187.00
2023-02-04T00:55:17.103Z,103193.22
2023-02-04T00:57:47.118Z,103192.34
2023-02-04T01:00:16.374Z,103202.25
2023-02-04T01:02:44.348Z,103192.44
2023-02-04T01:05:12.432Z,103203.16
2023-02-04T01:07:40.450Z,103197.81
2023-02-04T01:10:11.780Z,103212.09
2023-02-04T01:12:41.107Z,103195.19
2023-02-04T01:15:10.000Z,103197.88
2023-02-04T01:17:37.952Z,103200.56
2023-02-04T01:20:06.363Z,103201.50
2023-02-04T01:22:34.284Z,103199.75
2023-02-04T01:25:02.453Z,103212.22
2023-02-04T01:27:33.148Z,103216.75
2023-02-04T01:30:05.397Z,103215.84
2023-02-04T01:32:33.467Z,103231.91
2023-02-04T01:35:01.478Z,103230.16
2023-02-04T01:37:29.430Z,103225.75
2023-02-04T01:39:57.355Z,103235.56
2023-02-04T01:42:25.440Z,103232.94
2023-02-04T01:44:54.115Z,103239.22
2023-02-04T01:47:24.852Z,103233.84
2023-02-04T01:49:55.709Z,103245.47
2023-02-04T01:52:24.572Z,103244.59
2023-02-04T01:54:53.827Z,103248.13
2023-02-04T01:57:21.937Z,103250.84
2023-02-04T01:59:53.467Z,103250.91
2023-02-04T02:02:42.867Z,103253.53
2023-02-04T02:05:13.954Z,103252.69
2023-02-04T02:07:43.160Z,103257.13
2023-02-04T02:10:13.239Z,103260.75
2023-02-04T02:12:42.468Z,103262.56
2023-02-04T02:15:11.727Z,103267.03
2023-02-04T02:17:41.823Z,103262.56
2023-02-04T02:20:11.546Z,103265.25
2023-02-04T02:22:45.704Z,103263.50
2023-02-04T02:25:16.432Z,103257.25
2023-02-04T02:27:45.043Z,103258.13
2023-02-04T02:30:14.946Z,103267.13
2023-02-04T02:32:42.986Z,103270.72
2023-02-04T02:35:11.049Z,103274.28
2023-02-04T02:37:39.089Z,103268.03
2023-02-04T02:40:09.292Z,103273.41
2023-02-04T02:42:39.137Z,103279.66
2023-02-04T02:45:14.643Z,103271.63
2023-02-04T02:47:42.698Z,103272.56
2023-02-04T02:50:17.159Z,103268.13
2023-02-04T02:52:45.095Z,103269.00
2023-02-04T02:55:16.249Z,103274.41
2023-02-04T02:57:46.577Z,103276.19
2023-02-04T03:00:19.103Z,103278.84
2023-02-04T03:02:54.313Z,103295.84
2023-02-04T03:05:22.708Z,103293.19
2023-02-04T03:07:50.726Z,103294.94
2023-02-04T03:10:19.325Z,103297.59
2023-02-04T03:12:49.116Z,103294.94
2023-02-04T03:15:17.515Z,103293.13
2023-02-04T03:17:45.976Z,103298.47
2023-02-04T03:20:17.173Z,103306.47
2023-02-04T03:22:45.209Z,103303.78
2023-02-04T03:25:13.136Z,103310.03
2023-02-04T03:27:41.159Z,103314.50
2023-02-04T03:30:11.358Z,103313.63
2023-02-04T03:32:42.365Z,103318.13
2023-02-04T03:35:10.468Z,103317.31
2023-02-04T03:37:38.367Z,103321.72
2023-02-04T03:40:07.208Z,103326.22
2023-02-04T03:42:35.198Z,103325.34
2023-02-04T03:45:03.173Z,103320.88
2023-02-04T03:47:32.681Z,103323.59
2023-02-04T03:50:00.738Z,103321.81
2023-02-04T03:52:28.744Z,103320.94
2023-02-04T03:54:56.736Z,103318.25
2023-02-04T03:57:24.721Z,103313.81
2023-02-04T03:59:52.728Z,103316.50
2023-02-04T04:02:20.699Z,103313.84
2023-02-04T04:04:50.022Z,103318.31
2023-02-04T04:07:20.851Z,103320.13
2023-02-04T04:09:48.821Z,103320.16
2023-02-04T04:12:16.708Z,103321.03
2023-02-04T04:14:47.674Z,103329.97
2023-02-04T04:17:15.652Z,103325.56
2023-02-04T04:19:44.666Z,103329.09
2023-02-04T04:22:14.024Z,103329.09
2023-02-04T04:24:44.333Z,103333.59
2023-02-04T04:27:12.324Z,103333.66
2023-02-04T04:29:40.238Z,103333.66
2023-02-04T04:32:09.775Z,103342.56
2023-02-04T04:34:37.791Z,103343.47
2023-02-04T04:37:05.823Z,103341.66
2023-02-04T04:39:35.111Z,103338.13
2023-02-04T04:42:03.146Z,103347.97
2023-02-04T04:44:31.158Z,103351.56
2023-02-04T04:46:59.194Z,103346.22
2023-02-04T04:49:27.208Z,103360.53
2023-02-04T04:51:55.146Z,103358.75
2023-02-04T04:54:23.096Z,103362.31
2023-02-04T04:56:52.408Z,103359.63
2023-02-04T04:59:20.387Z,103357.00
2023-02-04T05:01:48.439Z,103359.66
2023-02-04T05:04:16.358Z,103360.59
2023-02-04T05:06:47.122Z,103367.75
2023-02-04T05:09:17.444Z,103378.47
2023-02-04T05:11:45.423Z,103376.69
2023-02-04T05:14:14.710Z,103371.34
2023-02-04T05:16:42.768Z,103377.63
2023-02-04T05:19:10.747Z,103374.06
2023-02-04T05:21:38.713Z,103382.09
2023-02-04T05:24:09.617Z,103380.38
2023-02-04T05:26:37.656Z,103390.19
2023-02-04T05:29:05.856Z,103384.84
2023-02-04T05:31:35.261Z,103385.72
2023-02-04T05:34:03.317Z,103384.84
2023-02-04T05:36:31.230Z,103387.53
2023-02-04T05:38:59.273Z,103390.22
2023-02-04T05:41:27.294Z,103384.84
2023-02-04T05:43:55.560Z,103375.97
2023-02-04T05:46:23.652Z,103381.34
2023-02-04T05:48:52.960Z,103386.69
2023-02-04T05:51:20.910Z,103389.38
2023-02-04T05:53:48.848Z,103384.09
2023-02-04T05:56:19.307Z,103395.72
2023-02-04T05:58:47.237Z,103398.41
2023-02-04T06:01:15.308Z,103401.09
2023-02-04T06:03:43.263Z,103408.25
2023-02-04T06:06:12.542Z,103399.28
2023-02-04T06:08:40.477Z,103402.84
2023-02-04T06:11:09.763Z,103393.94
2023-02-04T06:13:37.782Z,103400.16
2023-02-04T06:16:06.096Z,103401.97
2023-02-04T06:18:34.078Z,103401.09
2023-02-04T06:21:04.663Z,103403.75
2023-02-04T06:23:34.730Z,103407.31
2023-02-04T06:26:03.210Z,103414.47
2023-02-04T06:28:31.107Z,103409.13
2023-02-04T06:30:59.243Z,103414.47
2023-02-04T06:33:28.416Z,103415.38
2023-02-04T06:35:56.478Z,103424.31
2023-02-04T06:38:24.516Z,103419.84
2023-02-04T06:40:54.540Z,103426.06
2023-02-04T06:43:24.042Z,103427.00
2023-02-04T06:45:52.170Z,103430.56
2023-02-04T06:48:20.419Z,103435.06
2023-02-04T06:50:48.824Z,103432.38
2023-02-04T06:53:16.774Z,103445.78
2023-02-04T06:55:44.780Z,103439.53
2023-02-04T06:58:14.081Z,103450.22
2023-02-04T07:00:42.151Z,103443.09
2023-02-04T07:03:10.095Z,103448.50
2023-02-04T07:05:38.032Z,103462.72
2023-02-04T07:08:06.564Z,103465.44
2023-02-04T07:10:34.868Z,103472.63
2023-02-04T07:13:02.980Z,103469.06
2023-02-04T07:15:32.635Z,103467.28
2023-02-04T07:18:00.813Z,103474.41
2023-02-04T07:20:28.900Z,103479.78
2023-02-04T07:22:59.609Z,103479.72
2023-02-04T07:25:27.562Z,103470.81
2023-02-04T07:27:56.303Z,103480.66
2023-02-04T07:30:24.330Z,103486.00
2023-02-04T07:32:56.196Z,103483.34
2023-02-04T07:35:25.090Z,103486.94
2023-02-04T07:37:53.129Z,103494.09
2023-02-04T07:40:21.820Z,103493.22
2023-02-04T07:42:49.785Z,103499.50
2023-02-04T07:45:17.839Z,103503.09
2023-02-04T07:47:45.803Z,103513.81
2023-02-04T07:50:17.977Z,103512.91
2023-02-04T07:52:45.925Z,103512.03
2023-02-04T07:55:14.085Z,103511.16
2023-02-04T07:57:42.042Z,103528.13
2023-02-04T08:00:14.526Z,103520.13
2023-02-04T08:02:42.709Z,103537.06
2023-02-04T08:05:11.644Z,103535.31
2023-02-04T08:07:41.084Z,103533.53
2023-02-04T08:10:11.672Z,103545.13
2023-02-04T08:12:39.712Z,103544.25
2023-02-04T08:15:08.755Z,103545.13
2023-02-04T08:17:36.802Z,103560.31
2023-02-04T08:20:05.134Z,103559.44
2023-02-04T08:22:33.947Z,103563.88
2023-02-04T08:25:06.368Z,103560.31
2023-02-04T08:27:34.324Z,103557.63
2023-02-04T08:30:02.308Z,103565.69
2023-02-04T08:32:31.274Z,103562.13
2023-02-04T08:35:02.325Z,103566.56
2023-02-04T08:37:30.381Z,103569.22
2023-02-04T08:39:58.380Z,103571.03
2023-02-04T08:42:27.964Z,103571.91
2023-02-04T08:44:55.941Z,103573.72
2023-02-04T08:47:23.970Z,103569.22
2023-02-04T08:49:51.880Z,103576.41
2023-02-04T08:52:20.095Z,103574.69
2023-02-04T08:54:48.042Z,103576.44
2023-02-04T08:57:16.102Z,103580.00
2023-02-04T08:59:45.959Z,103580.00
2023-02-04T09:02:13.909Z,103578.25
2023-02-04T09:04:41.956Z,103581.78
2023-02-04T09:07:09.921Z,103583.59
2023-02-04T09:09:37.960Z,103573.75
2023-02-04T09:12:05.999Z,103581.81
2023-02-04T09:14:33.917Z,103588.06
2023-02-04T09:17:04.231Z,103582.72
2023-02-04T09:19:34.794Z,103592.53
2023-02-04T09:22:02.796Z,103597.88
2023-02-04T09:24:30.751Z,103598.78
2023-02-04T09:26:58.742Z,103597.91
2023-02-04T09:29:26.727Z,103604.16
2023-02-04T09:31:54.784Z,103605.91
2023-02-04T09:34:24.057Z,103604.16
2023-02-04T09:36:52.025Z,103604.16
2023-02-04T09:39:20.009Z,103600.59
2023-02-04T09:41:54.005Z,103596.16
2023-02-04T09:44:27.702Z,103597.09
2023-02-04T09:46:57.989Z,103600.63
2023-02-04T09:49:29.611Z,103602.44
2023-02-04T09:51:58.073Z,103599.75
2023-02-04T09:54:26.632Z,103603.28
2023-02-04T09:56:54.748Z,103599.72
2023-02-04T09:59:24.536Z,103606.84
2023-02-04T10:01:58.616Z,103607.72
2023-02-04T10:04:28.289Z,103618.41
2023-02-04T10:06:59.043Z,103614.88
2023-02-04T10:09:27.412Z,103622.84
2023-02-04T10:11:55.730Z,103614.88
2023-02-04T10:14:24.684Z,103627.34
2023-02-04T10:16:58.977Z,103624.66
2023-02-04T10:19:31.765Z,103621.97
2023-02-04T10:22:00.058Z,103623.75
2023-02-04T10:24:30.636Z,103625.53
2023-02-04T10:27:08.934Z,103630.91
2023-02-04T10:29:37.296Z,103627.28
2023-02-04T10:32:05.509Z,103623.72
2023-02-04T10:34:37.908Z,103621.06
2023-02-04T10:37:15.435Z,103620.13
2023-02-04T10:39:46.312Z,103620.13
2023-02-04T10:42:22.978Z,103625.50
2023-02-04T10:44:51.347Z,103623.69
2023-02-04T10:47:21.179Z,103627.25
2023-02-04T10:49:58.848Z,103625.50
2023-02-04T10:52:35.233Z,103630.84
2023-02-04T10:55:04.768Z,103635.28
2023-02-04T10:57:36.420Z,103639.72
2023-02-04T11:00:07.883Z,103637.03
2023-02-04T11:02:43.176Z,103638.84
2023-02-04T11:05:17.987Z,103637.91
2023-02-04T11:07:47.237Z,103625.44
2023-02-04T11:10:17.901Z,103633.47
2023-02-04T11:12:47.714Z,103629.00
2023-02-04T11:15:45.539Z,103631.69
2023-02-04T11:18:27.424Z,103623.63
2023-02-04T11:20:59.048Z,103629.00
2023-02-04T11:23:44.923Z,103633.47
2023-02-04T11:26:19.129Z,103630.78
2023-02-04T11:28:56.402Z,103626.31
2023-02-04T11:31:42.614Z,103629.88
2023-02-04T11:34:25.595Z,103626.31
2023-02-04T11:37:05.739Z,103633.47
2023-02-04T11:39:37.264Z,103632.56
2023-02-04T11:42:06.510Z,103631.69
2023-02-04T11:44:36.681Z,103630.78
2023-02-04T11:47:09.947Z,103636.16
2023-02-04T11:49:38.367Z,103635.28
2023-02-04T11:52:09.690Z,103629.00
2023-02-04T11:54:40.826Z,103632.56
2023-02-04T11:57:12.500Z,103633.47
2023-02-04T11:59:40.542Z,103633.47
2023-02-04T12:02:17.679Z,103634.38
2023-02-04T12:04:56.620Z,103636.13
2023-02-04T12:07:30.926Z,103632.47
2023-02-04T12:10:12.631Z,103626.13
2023-02-04T12:12:44.258Z,103624.25
2023-02-04T12:15:18.467Z,103625.97
2023-02-04T12:17:47.233Z,103632.16
2023-02-04T12:20:15.575Z,103623.19
2023-02-04T12:22:44.959Z,103636.53
2023-02-04T12:25:16.902Z,103624.91
2023-02-04T12:27:44.934Z,103628.44
2023-02-04T12:30:13.883Z,103634.69
2023-02-04T12:32:41.810Z,103636.44
2023-02-04T12:35:11.680Z,103640.00
2023-02-04T12:37:39.747Z,103632.88
2023-02-04T12:40:11.328Z,103624.81
2023-02-04T12:42:39.298Z,103623.03
2023-02-04T12:45:07.992Z,103640.00
2023-02-04T12:47:35.946Z,103623.91
2023-02-04T12:50:04.133Z,103628.34
2023-02-04T12:52:32.232Z,103630.16
2023-02-04T12:55:00.300Z,103635.69
2023-02-04T12:57:32.727Z,103632.53
2023-02-04T13:00:01.583Z,103626.25
2023-02-04T13:02:30.163Z,103631.53
2023-02-04T13:04:58.271Z,103632.41
2023-02-04T13:07:26.586Z,103627.09
2023-02-04T13:09:54.828Z,103625.28
2023-02-04T13:12:22.842Z,103627.94
2023-02-04T13:14:52.276Z,103625.34
2023-02-04T13:17:22.800Z,103619.91
2023-02-04T13:19:50.798Z,103626.34
2023-02-04T13:22:18.775Z,103617.25
2023-02-04T13:24:46.826Z,103611.78
2023-02-04T13:27:17.355Z,103613.50
2023-02-04T13:29:45.881Z,103617.09
2023-02-04T13:32:15.250Z,103607.19
2023-02-04T13:34:43.248Z,103618.72
2023-02-04T13:37:11.186Z,103610.66
2023-02-04T13:39:39.176Z,103607.94
2023-02-04T13:42:09.975Z,103608.31
2023-02-04T13:44:38.001Z,103604.63
2023-02-04T13:47:06.038Z,103603.66
2023-02-04T13:49:35.616Z,103606.28
2023-02-04T13:52:03.606Z,103599.63
2023-02-04T13:54:31.581Z,103595.84
2023-02-04T13:56:59.516Z,103605.53
2023-02-04T13:59:27.546Z,103615.25
2023-02-04T14:01:55.570Z,103608.00
2023-02-04T14:04:23.662Z,103607.94
2023-02-04T14:06:54.221Z,103617.69
2023-02-04T14:09:22.998Z,103618.53
2023-02-04T14:11:51.830Z,103612.19
2023-02-04T14:14:19.802Z,103611.25
2023-02-04T14:16:50.628Z,103612.09
2023-02-04T14:19:19.463Z,103606.72
2023-02-04T14:21:48.754Z,103610.25
2023-02-04T14:24:18.319Z,103608.44
2023-02-04T14:26:46.357Z,103603.97
2023-02-04T14:29:14.368Z,103603.97
2023-02-04T14:31:42.408Z,103611.94
2023-02-04T14:34:10.456Z,103611.03
2023-02-04T14:36:38.548Z,103609.22
2023-02-04T14:39:06.641Z,103609.69
2023-02-04T14:41:36.048Z,103608.63
2023-02-04T14:44:08.964Z,103610.38
2023-02-04T14:46:36.971Z,103608.53
2023-02-04T14:49:04.903Z,103615.66
2023-02-04T14:51:35.232Z,103614.72
2023-02-04T14:54:03.332Z,103611.13
2023-02-04T14:56:31.243Z,103612.91
2023-02-04T14:59:00.596Z,103615.56
2023-02-04T15:01:28.654Z,103610.19
2023-02-04T15:03:56.696Z,103615.50
2023-02-04T15:06:24.748Z,103619.09
2023-02-04T15:08:55.588Z,103624.47
2023-02-04T15:11:23.590Z,103616.44
2023-02-04T15:13:51.496Z,103620.09
2023-02-04T15:16:21.054Z,103628.03
2023-02-04T15:18:49.317Z,103633.38
2023-02-04T15:21:17.340Z,103628.91
2023-02-04T15:23:47.390Z,103633.34
2023-02-04T15:26:15.648Z,103629.78
2023-02-04T15:28:43.677Z,103632.41
2023-02-04T15:31:12.421Z,103636.00
2023-02-04T15:33:41.913Z,103637.88
2023-02-04T15:36:10.269Z,103640.50
2023-02-04T15:38:38.268Z,103643.13
2023-02-04T15:41:06.623Z,103643.13
2023-02-04T15:43:34.654Z,103638.69
2023-02-04T15:46:02.610Z,103649.41
2023-02-04T15:48:30.663Z,103651.16
2023-02-04T15:51:00.064Z,103650.28
2023-02-04T15:53:28.180Z,103644.94
2023-02-04T15:55:56.133Z,103654.72
2023-02-04T15:58:24.217Z,103642.16
2023-02-04T16:00:52.226Z,103649.31
2023-02-04T16:03:20.255Z,103651.94
2023-02-04T16:05:48.279Z,103650.16
2023-02-04T16:08:20.418Z,103642.09
2023-02-04T16:10:48.344Z,103649.22
2023-02-04T16:13:16.314Z,103646.53
2023-02-04T16:15:44.336Z,103654.53
2023-02-04T16:18:12.269Z,103650.06
2023-02-04T16:20:40.323Z,103657.19
2023-02-04T16:23:08.379Z,103660.75
2023-02-04T16:25:37.770Z,103664.28
2023-02-04T16:28:05.851Z,103666.97
2023-02-04T16:30:33.876Z,103664.28
2023-02-04T16:33:04.464Z,103668.75
2023-02-04T16:35:32.778Z,103667.81
2023-02-04T16:38:03.745Z,103669.56
2023-02-04T16:40:32.057Z,103668.75
2023-02-04T16:43:01.574Z,103673.16
2023-02-04T16:45:32.533Z,103675.81
2023-02-04T16:48:00.715Z,103682.06
2023-02-04T16:50:28.658Z,103676.72
2023-02-04T16:52:56.653Z,103681.19
2023-02-04T16:55:25.729Z,103674.03
2023-02-04T16:57:53.705Z,103683.84
2023-02-04T17:00:23.851Z,103691.00
2023-02-04T17:02:51.882Z,103678.50
2023-02-04T17:05:20.021Z,103676.69
2023-02-04T17:07:48.128Z,103674.88
2023-02-04T17:10:16.495Z,103675.75
2023-02-04T17:12:44.485Z,103682.00
2023-02-04T17:15:13.952Z,103682.91
2023-02-04T17:17:43.349Z,103687.41
2023-02-04T17:20:12.296Z,103688.28
2023-02-04T17:22:40.227Z,103690.97
2023-02-04T17:25:08.540Z,103692.72
2023-02-04T17:27:36.534Z,103695.41
2023-02-04T17:30:04.802Z,103698.91
2023-02-04T17:32:32.791Z,103699.81
2023-02-04T17:35:02.161Z,103702.47
2023-02-04T17:37:30.198Z,103701.53
2023-02-04T17:39:58.552Z,103704.22
2023-02-04T17:42:26.554Z,103699.72
2023-02-04T17:44:54.820Z,103704.16
2023-02-04T17:47:22.756Z,103706.81
2023-02-04T17:49:50.838Z,103697.00
2023-02-04T17:52:20.116Z,103697.88
2023-02-04T17:54:48.105Z,103695.16
2023-02-04T17:57:19.574Z,103695.16
2023-02-04T17:59:48.235Z,103693.34
2023-02-04T18:02:25.812Z,103690.66
2023-02-04T18:04:56.646Z,103692.59
2023-02-04T18:07:26.725Z,103700.75
2023-02-04T18:10:10.797Z,103702.56
2023-02-04T18:12:38.763Z,103704.41
2023-02-04T18:15:24.784Z,103715.09
2023-02-04T18:17:54.001Z,103707.88
2023-02-04T18:20:21.969Z,103707.81
2023-02-04T18:22:56.384Z,103713.13
2023-02-04T18:25:24.995Z,103705.91
2023-02-04T18:27:55.533Z,103717.47
2023-02-04T18:30:26.374Z,103711.09
2023-02-04T18:32:55.448Z,103711.03
2023-02-04T18:35:43.209Z,103719.06
2023-02-04T18:38:25.344Z,103725.22
2023-02-04T18:40:59.565Z,103719.75
2023-02-04T18:43:29.509Z,103720.59
2023-02-04T18:46:01.859Z,103706.25
2023-02-04T18:48:57.592Z,103715.13
2023-02-04T18:51:32.318Z,103717.75
2023-02-04T18:54:19.453Z,103717.75
2023-02-04T18:56:47.605Z,103722.19
2023-02-04T18:59:18.119Z,103723.09
2023-02-04T19:01:47.993Z,103716.81
2023-02-04T19:04:22.682Z,103715.06
2023-02-04T19:06:53.097Z,103712.31
2023-02-04T19:09:25.871Z,103707.84
2023-02-04T19:11:54.941Z,103706.91
2023-02-04T19:14:25.724Z,103706.91
2023-02-04T19:16:58.766Z,103711.41
2023-02-04T19:19:35.348Z,103711.44
2023-02-04T19:22:15.403Z,103728.41
2023-02-04T19:24:44.843Z,103724.03
2023-02-04T19:27:30.049Z,103724.88
2023-02-04T19:29:59.684Z,103719.44
2023-02-04T19:32:41.320Z,103722.94
2023-02-04T19:35:19.144Z,103730.94
2023-02-04T19:37:53.912Z,103733.63
2023-02-04T19:40:29.764Z,103729.09
2023-02-04T19:43:16.172Z,103725.50
2023-02-04T19:45:46.002Z,103725.47
2023-02-04T19:48:23.003Z,103729.03
2023-02-04T19:50:54.015Z,103735.22
2023-02-04T19:53:23.502Z,103725.41
2023-02-04T19:55:53.882Z,103728.97
2023-02-04T19:58:23.417Z,103726.28
2023-02-04T20:00:59.471Z,103726.28
2023-02-04T20:03:41.566Z,103714.63
2023-02-04T20:06:27.276Z,103719.13
2023-02-04T20:08:58.108Z,103713.75
2023-02-04T20:11:51.626Z,103708.38
2023-02-04T20:14:40.956Z,103710.13
2023-02-04T20:17:39.651Z,103701.19
2023-02-04T20:20:27.828Z,103696.66
2023-02-04T20:22:59.617Z,103695.78
2023-02-04T20:25:45.057Z,103692.19
2023-02-04T20:28:30.171Z,103693.09
2023-02-04T20:31:01.631Z,103688.59
2023-02-04T20:33:33.855Z,103689.50
2023-02-04T20:36:29.193Z,103693.03
2023-02-04T20:39:14.964Z,103693.03
2023-02-04T20:41:43.590Z,103700.16
2023-02-04T20:44:18.468Z,103700.16
2023-02-04T20:46:49.294Z,103700.16
2023-02-04T20:49:23.332Z,103711.78
2023-02-04T20:51:52.259Z,103712.63
2023-02-04T20:54:20.296Z,103718.94
2023-02-04T20:56:48.300Z,103727.88
2023-02-04T20:59:30.680Z,103718.94
2023-02-04T21:01:58.492Z,103717.09
2023-02-04T21:04:30.768Z,103725.13
2023-02-04T21:07:02.545Z,103722.44
2023-02-04T21:09:32.741Z,103715.31
2023-02-04T21:12:02.333Z,103718.00
2023-02-04T21:14:31.947Z,103714.44
2023-02-04T21:17:00.014Z,103709.06
2023-02-04T21:19:28.800Z,103697.47
2023-02-04T21:21:57.482Z,103697.47
2023-02-04T21:24:26.231Z,103690.31
2023-02-04T21:26:54.500Z,103690.31
2023-02-04T21:29:22.682Z,103693.88
2023-02-04T21:31:52.821Z,103692.09
2023-02-04T21:34:20.910Z,103686.75
2023-02-04T21:36:48.881Z,103683.19
2023-02-04T21:39:16.877Z,103676.94
2023-02-04T21:41:44.816Z,103669.81
2023-02-04T21:44:12.783Z,103676.06
2023-02-04T21:46:43.116Z,103683.22
2023-02-04T21:49:12.508Z,103671.59
2023-02-04T21:51:40.434Z,103675.19
2023-02-04T21:54:08.536Z,103672.50
2023-02-04T21:56:36.473Z,103676.06
2023-02-04T21:59:04.724Z,103687.72
2023-02-04T22:01:32.665Z,103687.72
2023-02-04T22:04:00.783Z,103691.34
2023-02-04T22:06:30.200Z,103693.16
2023-02-04T22:08:58.082Z,103702.09
2023-02-04T22:11:26.148Z,103697.66
2023-02-04T22:13:54.088Z,103693.16
2023-02-04T22:16:22.131Z,103693.22
2023-02-04T22:18:50.176Z,103692.34
2023-02-04T22:21:18.274Z,103690.56
2023-02-04T22:23:47.609Z,103692.34
2023-02-04T22:26:15.704Z,103696.84
2023-02-04T22:28:43.666Z,103695.94
2023-02-04T22:31:12.579Z,103689.72
2023-02-04T22:33:40.629Z,103687.97
2023-02-04T22:36:09.239Z,103687.06
2023-02-04T22:38:37.205Z,103690.66
2023-02-04T22:41:07.175Z,103693.31
2023-02-04T22:43:35.210Z,103703.19
2023-02-04T22:46:05.969Z,103705.88
2023-02-04T22:48:33.924Z,103706.78
2023-02-04T22:51:03.582Z,103712.16
2023-02-04T22:53:31.844Z,103701.47
2023-02-04T22:55:59.768Z,103708.59
2023-02-04T22:58:29.166Z,103704.16
2023-02-04T23:00:57.187Z,103700.59
2023-02-04T23:03:25.354Z,103691.75
2023-02-04T23:05:53.377Z,103696.16
2023-02-04T23:08:21.579Z,103691.72
2023-02-04T23:10:49.744Z,103697.97
2023-02-04T23:13:18.348Z,103693.53
2023-02-04T23:15:47.778Z,103684.56
2023-02-04T23:18:15.730Z,103673.88
2023-02-04T23:20:43.919Z,103672.94
2023-02-04T23:23:17.569Z,103674.75
2023-02-04T23:25:45.812Z,103678.31
2023-02-04T23:28:17.545Z,103664.97
2023-02-04T23:30:47.037Z,103663.16
2023-02-04T23:33:14.990Z,103665.00
2023-02-04T23:35:42.954Z,103665.94
2023-02-04T23:38:10.906Z,103660.59
2023-02-04T23:40:38.845Z,103661.50
2023-02-04T23:43:08.020Z,103658.88
2023-02-04T23:45:37.509Z,103648.16
2023-02-04T23:48:07.549Z,103641.91
2023-02-04T23:50:38.622Z,103639.25
2023-02-04T23:53:06.629Z,103633.00
2023-02-04T23:55:34.889Z,103621.38
2023-02-04T23:58:03.065Z,103618.72
